Latest Weather Observations for Hopetoun Airport

IDV60801

Issued at 11:35 pm EDT Saturday 25 October 2014 (issued every 30 minutes, with the page automatically refreshed every 10 minutes)

About weather observations | Map of weather stations | Latest weather observations for VIC | Other Formats
Station Details ID: 077010 Name: HOPETOUN AIRPORT Lat: -35.72 Lon: 142.36 Height: 77.3 m
Data from the previous 72 hours. | See also: Recent months at Hopetoun Airport
Date/Time
EDT
Temp
°C
App
Temp
°C
Dew
Point
Rel
Hum
%
Delta-T
°C
Wind Press
QNH
hPa
Press
MSL
hPa
Rain
since 9 am
mm
Dir
 
Spd
km/h
Gust
km/h
Spd
kts
Gust
kts
25/11:30pm 18.8 16.5 9.0 53 5.1 S 11 17 6 9 1013.8 1013.8 0.0
25/11:00pm 19.9 16.7 8.6 48 5.9 S 15 20 8 11 1013.9 1013.9 0.0
25/10:30pm 20.5 17.4 7.2 42 6.8 S 13 19 7 10 1013.9 1013.9 0.0
25/10:00pm 21.4 18.1 6.5 38 7.6 SSW 13 20 7 11 1014.3 1014.3 0.0
25/09:30pm 22.5 18.7 5.9 34 8.4 SW 15 20 8 11 1013.9 1013.9 0.0
25/09:00pm 23.5 18.9 5.4 31 9.1 WSW 19 24 10 13 1013.5 1013.4 0.0
25/08:30pm 24.5 19.7 4.8 28 9.9 WSW 19 24 10 13 1013.2 1013.1 0.0
25/08:00pm 25.8 21.0 5.4 27 10.5 SW 20 26 11 14 1012.8 1012.7 0.0
25/07:30pm 27.4 22.3 6.2 26 11.1 SW 22 30 12 16 1012.4 1012.3 0.0
25/07:00pm 28.2 22.3 5.7 24 11.8 SW 26 33 14 18 1012.0 1011.9 0.0
25/06:30pm 29.5 23.9 5.6 22 12.6 WSW 24 32 13 17 1011.7 1011.6 0.0
25/06:00pm 30.4 24.8 5.6 21 13.1 WSW 24 32 13 17 1011.7 1011.6 0.0
25/05:30pm 30.9 25.4 6.0 21 13.3 WSW 24 35 13 19 1011.4 1011.3 0.0
25/05:00pm 31.0 26.1 6.8 22 13.1 SW 22 35 12 19 1011.4 1011.3 0.0
25/04:30pm 30.6 26.2 6.5 22 12.9 WSW 19 28 10 15 1011.5 1011.4 0.0
25/04:00pm 30.7 26.3 7.2 23 12.8 SSW 20 30 11 16 1011.6 1011.5 0.0
25/03:30pm 30.8 27.0 6.0 21 13.2 W 15 30 8 16 1011.8 1011.7 0.0
25/03:00pm 30.6 26.6 6.5 22 12.9 WSW 17 30 9 16 1012.0 1011.9 0.0
25/02:30pm 30.0 26.7 6.6 23 12.5 WSW 13 20 7 11 1012.4 1012.3 0.0
25/02:00pm 29.8 27.0 7.1 24 12.3 SSW 11 22 6 12 1012.8 1012.7 0.0
25/01:30pm 29.2 27.1 8.3 27 11.5 S 9 19 5 10 1013.0 1012.9 0.0
25/01:00pm 27.3 24.4 8.2 30 10.4 S 13 20 7 11 1013.6 1013.6 0.0
25/12:30pm 27.5 24.5 9.3 32 10.1 SSW 15 26 8 14 1014.3 1014.3 0.0
25/12:00pm 25.8 23.7 9.6 36 8.9 SSW 11 17 6 9 1014.6 1014.6 0.0
25/11:30am 24.7 23.1 10.2 40 8.0 S 9 19 5 10 1014.7 1014.7 0.0
25/11:00am 24.2 22.8 10.8 43 7.5 S 9 15 5 8 1015.2 1015.2 0.0
25/10:30am 22.3 21.4 11.4 50 6.1 S 7 11 4 6 1015.4 1015.4 0.0
25/10:00am 20.3 18.8 10.7 54 5.2 S 9 15 5 8 1015.8 1015.8 0.0
25/09:30am 18.8 16.3 10.9 60 4.3 S 15 20 8 11 1015.3 1015.3 0.0
25/09:00am 17.6 15.0 10.7 64 3.7 SSE 15 22 8 12 1015.2 1015.2 0.0
25/08:30am 16.1 13.5 10.6 70 2.9 SE 15 22 8 12 1015.0 1015.0 0.0
25/08:00am 14.1 10.4 10.1 77 2.1 SSE 20 28 11 15 1015.1 1015.1 0.0
25/07:30am 13.6 10.8 10.0 79 1.9 SSE 15 20 8 11 1014.9 1014.9 0.0
25/07:00am 13.2 10.5 10.2 82 1.6 SSE 15 22 8 12 1014.9 1014.9 0.0
25/06:30am 13.4 10.7 10.4 82 1.6 SSE 15 20 8 11 1014.7 1014.7 0.0
25/06:00am 13.7 10.7 10.5 81 1.7 SSE 17 20 9 11 1014.5 1014.5 0.0
25/05:30am 14.2 11.2 10.8 80 1.8 SSE 17 20 9 11 1014.4 1014.4 0.0
25/05:00am 14.9 12.7 10.9 77 2.1 S 13 19 7 10 1014.3 1014.3 0.0
25/04:30am 15.4 12.9 11.2 76 2.3 S 15 20 8 11 1014.1 1014.1 0.0
25/04:00am 15.9 13.4 11.1 73 2.6 SSE 15 20 8 11 1013.9 1013.9 0.0
25/03:30am 16.5 14.4 11.0 70 3.0 S 13 17 7 9 1014.0 1014.0 0.0
25/03:00am 17.0 14.9 11.1 68 3.2 S 13 17 7 9 1014.0 1014.0 0.0
25/02:30am 17.3 15.1 10.7 65 3.5 S 13 19 7 10 1014.3 1014.3 0.0
25/02:00am 17.9 15.8 9.8 59 4.3 S 11 15 6 8 1014.4 1014.4 0.0
25/01:30am 18.9 15.9 9.4 54 5.0 S 15 22 8 12 1014.4 1014.4 0.0
25/01:00am 19.8 15.5 7.2 44 6.4 SSE 19 24 10 13 1014.0 1014.0 0.0
25/12:30am 20.4 16.5 5.2 37 7.5 S 15 20 8 11 1014.6 1014.6 0.0
25/12:00am 21.1 17.4 4.2 33 8.2 S 13 19 7 10 1014.5 1014.5 0.0
 
Date/Time
EDT
Temp
°C
App
Temp
°C
Dew
Point
Rel
Hum
%
Delta-T
°C
Wind Press
QNH
hPa
Press
MSL
hPa
Rain
since 9 am
mm
Dir
 
Spd
km/h
Gust
km/h
Spd
kts
Gust
kts
24/11:30pm 21.6 18.4 3.3 30 8.8 S 9 11 5 6 1014.5 1014.5 0.0
24/11:00pm 22.6 19.5 3.7 29 9.2 S 9 13 5 7 1014.4 1014.4 0.0
24/10:30pm 21.2 18.2 3.9 32 8.4 SW 9 11 5 6 1014.6 1014.6 0.0
24/10:00pm 23.9 21.0 4.8 29 9.6 S 9 13 5 7 1014.0 1014.0 0.0
24/09:30pm 23.8 20.6 5.2 30 9.4 SSW 11 15 6 8 1014.2 1014.2 0.0
24/09:00pm 24.8 21.0 5.6 29 9.8 SSW 15 17 8 9 1013.9 1013.9 0.0
24/08:30pm 25.4 21.8 5.1 27 10.3 SSW 13 15 7 8 1013.5 1013.4 0.0
24/08:00pm 26.9 23.2 4.6 24 11.3 SSW 13 15 7 8 1013.0 1012.9 0.0
24/07:30pm 29.4 25.4 4.8 21 12.7 SW 15 22 8 12 1012.8 1012.7 0.0
24/07:00pm 30.9 26.2 5.3 20 13.5 SW 19 24 10 13 1012.3 1012.2 0.0
24/06:30pm 31.2 26.1 4.1 18 14.0 WSW 20 26 11 14 1012.2 1012.1 0.0
24/06:00pm 32.0 26.7 2.1 15 15.1 WSW 19 26 10 14 1011.8 1011.7 0.0
24/05:30pm 32.2 26.2 1.3 14 15.4 WSW 22 32 12 17 1011.6 1011.5 0.0
24/05:00pm 32.1 26.3 0.2 13 15.6 WSW 20 32 11 17 1011.6 1011.5 0.0
24/04:30pm 32.5 25.7 -1.7 11 16.2 W 24 39 13 21 1011.8 1011.7 0.0
24/04:00pm 32.5 24.4 -0.5 12 16.0 WSW 32 41 17 22 1012.0 1011.9 0.0
24/03:30pm 31.4 24.1 -0.3 13 15.3 WSW 28 39 15 21 1012.2 1012.1 0.0
24/03:00pm 31.7 24.8 -2.3 11 15.9 WSW 24 37 13 20 1012.3 1012.2 0.0
24/02:30pm 31.4 23.0 -2.6 11 15.7 WSW 32 44 17 24 1012.7 1012.6 0.0
24/02:00pm 30.2 24.5 0.7 15 14.3 W 20 37 11 20 1012.8 1012.7 0.0
24/01:30pm 29.9 21.9 1.4 16 14.0 WSW 33 43 18 23 1013.0 1012.9 0.0
24/01:00pm 28.8 22.7 2.9 19 12.9 W 24 37 13 20 1013.1 1013.0 0.0
24/12:30pm 27.2 21.0 2.3 20 12.2 W 24 32 13 17 1013.5 1013.4 0.0
24/12:00pm 27.4 19.5 2.5 20 12.2 W 33 44 18 24 1013.6 1013.6 0.0
24/11:30am 27.0 20.9 4.7 24 11.4 WNW 26 37 14 20 1013.7 1013.7 0.0
24/11:00am 26.7 23.7 7.7 30 10.2 WNW 13 24 7 13 1013.9 1013.9 0.0
24/10:30am 23.4 21.9 9.0 40 7.8 W 7 13 4 7 1013.8 1013.8 0.0
24/10:00am 21.4 20.5 12.5 57 5.0 W 9 13 5 7 1014.0 1014.0 0.0
24/09:30am 20.0 19.5 12.7 63 4.1 W 7 11 4 6 1013.9 1013.9 0.0
24/09:00am 18.9 18.8 12.2 65 3.7 W 4 6 2 3 1013.4 1013.3 0.0
24/08:30am 17.3 17.9 11.8 70 3.0 CALM 0 4 0 2 1013.3 1013.2 0.0
24/08:00am 15.1 15.4 10.9 76 2.2 CALM 0 2 0 1 1013.1 1013.0 0.0
24/07:30am 12.5 11.5 8.8 78 1.9 SW 4 6 2 3 1012.9 1012.8 0.0
24/07:00am 11.4 9.9 8.6 83 1.4 SW 6 6 3 3 1012.6 1012.5 0.0
24/06:30am 11.7 11.5 9.1 84 1.3 CALM 0 0 0 0 1012.4 1012.3 0.0
24/06:00am 11.9 10.4 9.3 84 1.3 WSW 7 7 4 4 1012.4 1012.3 0.0
24/05:30am 12.3 10.4 9.0 80 1.7 W 9 11 5 6 1012.3 1012.2 0.0
24/05:00am 13.7 12.5 9.7 77 2.1 SSW 6 9 3 5 1011.9 1011.8 0.0
24/04:30am 13.9 12.2 9.7 76 2.2 W 9 11 5 6 1012.2 1012.1 0.0
24/04:00am 14.4 12.9 9.2 71 2.7 SW 7 9 4 5 1012.0 1011.9 0.0
24/03:30am 16.7 15.3 11.0 69 3.1 SSW 9 11 5 6 1011.9 1011.8 0.0
24/03:00am 15.7 14.4 9.8 68 3.1 SW 7 9 4 5 1012.2 1012.1 0.0
24/02:30am 16.7 14.7 10.3 66 3.4 SW 11 11 6 6 1012.2 1012.1 0.0
24/02:00am 17.1 15.2 10.5 65 3.5 WSW 11 13 6 7 1012.6 1012.5 0.0
24/01:30am 17.2 15.6 10.1 63 3.8 WSW 9 13 5 7 1012.7 1012.6 0.0
24/01:00am 17.9 16.6 10.0 60 4.2 WSW 7 9 4 5 1012.8 1012.7 0.0
24/12:30am 18.9 17.4 10.7 59 4.4 W 9 9 5 5 1013.0 1012.9 0.0
24/12:00am 21.0 19.3 11.1 53 5.5 SW 11 17 6 9 1013.0 1012.9 0.0
 
Date/Time
EDT
Temp
°C
App
Temp
°C
Dew
Point
Rel
Hum
%
Delta-T
°C
Wind Press
QNH
hPa
Press
MSL
hPa
Rain
since 9 am
mm
Dir
 
Spd
km/h
Gust
km/h
Spd
kts
Gust
kts
23/11:30pm 22.3 20.4 11.7 51 6.0 SSE 13 19 7 10 1012.9 1012.8 0.0
23/11:00pm 23.2 21.3 11.9 49 6.4 SSE 13 17 7 9 1013.1 1013.0 0.0
23/10:30pm 24.0 21.7 11.7 46 7.0 SE 15 19 8 10 1012.9 1012.8 0.0
23/10:00pm 24.6 22.6 11.5 44 7.4 SSE 13 15 7 8 1012.9 1012.8 0.0
23/09:30pm 26.0 24.0 10.2 37 8.8 SSE 11 15 6 8 1012.4 1012.3 0.0
23/09:00pm 26.3 24.1 9.2 34 9.4 SSW 11 15 6 8 1012.1 1012.0 0.0
23/08:30pm 27.2 24.5 9.1 32 10.0 SW 13 15 7 8 1011.6 1011.5 0.0
23/08:00pm 27.8 25.3 8.1 29 10.7 SW 11 13 6 7 1011.4 1011.3 0.0
23/07:30pm 29.9 27.6 8.9 27 11.7 WSW 11 13 6 7 1011.0 1010.9 0.0
23/07:00pm 31.3 28.3 7.7 23 13.0 W 13 17 7 9 1010.8 1010.7 0.0
23/06:30pm 32.5 29.8 7.4 21 13.8 W 11 17 6 9 1010.6 1010.5 0.0
23/06:00pm 32.5 29.6 8.0 22 13.6 WSW 13 17 7 9 1010.7 1010.6 0.0
23/05:30pm 33.3 30.2 7.3 20 14.3 W 13 20 7 11 1010.8 1010.7 0.0
23/05:00pm 33.3 32.1 9.4 23 13.6 SSW 6 13 3 7 1010.8 1010.7 0.0
23/04:30pm 32.7 31.5 9.5 24 13.2 SW 6 15 3 8 1011.0 1010.9 0.0
23/04:00pm 32.8 31.2 8.9 23 13.5 WSW 7 15 4 8 1011.2 1011.1 0.0
23/03:30pm 32.8 31.6 10.2 25 13.0 SSW 7 13 4 7 1011.8 1011.7 0.0
23/03:00pm 31.6 30.4 10.3 27 12.2 SE 7 19 4 10 1012.3 1012.2 0.0
23/02:30pm 31.0 30.0 10.9 29 11.6 ESE 7 15 4 8 1012.8 1012.7 0.0
23/02:00pm 30.6 30.2 11.1 30 11.3 SSW 4 11 2 6 1013.3 1013.2 0.0
23/01:30pm 28.9 27.5 11.0 33 10.3 S 9 17 5 9 1013.8 1013.8 0.0
23/01:00pm 28.7 27.0 11.3 34 10.0 S 11 20 6 11 1014.2 1014.2 0.0
23/12:30pm 27.1 26.2 11.2 37 9.1 S 7 15 4 8 1014.7 1014.7 0.0
23/12:00pm 25.2 23.9 11.4 42 7.8 S 9 19 5 10 1015.0 1015.0 0.0
23/11:30am 24.3 22.2 11.3 44 7.3 SSE 13 20 7 11 1015.5 1015.5 0.0
23/11:00am 23.2 21.6 11.6 48 6.5 SSE 11 19 6 10 1015.9 1015.9 0.0
23/10:30am 22.0 19.7 11.7 52 5.8 SSE 15 24 8 13 1015.9 1015.9 0.0
23/10:00am 20.9 18.1 11.5 55 5.2 SSE 17 22 9 12 1016.1 1016.1 0.0
23/09:30am 18.9 15.5 11.2 61 4.2 SSE 20 26 11 14 1016.0 1016.0 0.0
23/09:00am 17.8 14.4 11.1 65 3.6 SSE 20 28 11 15 1016.0 1016.0 0.0
23/08:30am 15.9 12.0 10.9 72 2.7 S 22 28 12 15 1016.1 1016.1 0.0
23/08:00am 14.9 11.3 10.7 76 2.2 S 20 30 11 16 1016.0 1016.0 0.0
23/07:30am 13.8 9.8 10.6 81 1.7 S 22 32 12 17 1015.6 1015.6 0.0
23/07:00am 13.2 9.2 10.4 83 1.5 S 22 30 12 16 1015.3 1015.3 0.0
23/06:30am 13.2 9.6 10.4 83 1.5 SSE 20 26 11 14 1015.1 1015.1 0.0
23/06:00am 13.3 8.9 10.5 83 1.5 SSE 24 32 13 17 1015.0 1015.0 0.0
23/05:30am 13.5 9.5 10.5 82 1.6 SSE 22 32 12 17 1014.9 1014.9 0.0
23/05:00am 13.7 9.8 10.7 82 1.6 SSE 22 30 12 16 1014.8 1014.8 0.0
23/04:30am 14.1 10.5 10.7 80 1.8 S 20 30 11 16 1014.8 1014.8 0.0
23/04:00am 14.4 10.5 10.8 79 1.9 S 22 32 12 17 1014.9 1014.9 0.0
23/03:30am 14.9 11.0 10.9 77 2.1 SSE 22 32 12 17 1014.9 1014.9 0.0
23/03:00am 15.6 11.0 11.2 75 2.4 S 26 33 14 18 1015.1 1015.1 0.0
23/02:30am 16.8 12.7 11.3 70 3.0 S 24 35 13 19 1015.3 1015.3 0.0
23/02:00am 17.6 15.1 11.2 66 3.5 S 15 22 8 12 1015.7 1015.7 0.0
23/01:30am 18.5 15.6 11.1 62 4.0 S 17 22 9 12 1015.8 1015.8 0.0
23/01:00am 20.0 16.6 10.7 55 5.1 S 19 22 10 12 1015.7 1015.7 0.0
23/12:30am 19.6 17.1 9.8 53 5.2 S 13 17 7 9 1015.8 1015.8 0.0
23/12:00am 20.1 18.4 9.9 52 5.5 S 9 13 5 7 1015.8 1015.8 0.0

Other Formats:

Comma delimited format used in spreadsheet applications
http://www.bom.gov.au/fwo/IDV60801/IDV60801.94838.axf

JavaScript Object Notation format (JSON) in row-major order
http://www.bom.gov.au/fwo/IDV60801/IDV60801.94838.json